Time;durP1;ratioP1;P1;durP2;ratioP2;P2;SDS_P1;SDS_P2;PMS_P1;PMS_P2;Temp;Humidity;BMP_temperature;BMP_pressure;BME280_temperature;BME280_humidity;BME280_pressure;Samples;Min_cycle;Max_cycle;Signal;HPM_P1;HPM_P2
2021/08/11 00:00:08;;;;;;;5.15;2.47;;;19.60;98.30;;;;;;5126126;27;20061;-80
2021/08/11 00:02:35;;;;;;;4.45;2.38;;;19.60;98.00;;;;;;5122878;27;20039;-78
2021/08/11 00:05:03;;;;;;;4.97;2.55;;;19.60;98.00;;;;;;5122862;27;20131;-79
2021/08/11 00:07:31;;;;;;;5.32;2.60;;;19.60;97.70;;;;;;5126473;27;20131;-78
2021/08/11 00:09:58;;;;;;;5.22;2.70;;;19.60;97.40;;;;;;5126028;27;20134;-77
2021/08/11 00:12:25;;;;;;;6.60;3.08;;;19.40;97.40;;;;;;5119018;27;20154;-80
2021/08/11 00:14:52;;;;;;;4.30;2.75;;;19.30;97.80;;;;;;5126595;27;20099;-76
2021/08/11 00:17:20;;;;;;;5.45;3.00;;;19.30;98.00;;;;;;5129570;27;20135;-80
2021/08/11 00:19:47;;;;;;;5.20;2.38;;;19.20;97.90;;;;;;5121883;27;20093;-79
2021/08/11 00:22:14;;;;;;;5.50;2.55;;;19.10;98.00;;;;;;5124664;27;20122;-80
2021/08/11 00:24:42;;;;;;;4.35;2.42;;;19.10;98.20;;;;;;5116999;27;20127;-78
2021/08/11 00:27:09;;;;;;;5.28;2.70;;;19.00;98.40;;;;;;5123244;27;20085;-80
2021/08/11 00:29:37;;;;;;;4.43;2.33;;;19.00;98.40;;;;;;5126347;27;20043;-79
2021/08/11 00:32:04;;;;;;;5.53;2.53;;;19.00;98.60;;;;;;5129155;27;20493;-79
2021/08/11 00:34:31;;;;;;;5.13;2.83;;;19.00;98.70;;;;;;5112309;27;20122;-78
2021/08/11 00:36:58;;;;;;;6.78;2.80;;;19.00;98.60;;;;;;5125805;27;20459;-80
2021/08/11 00:39:25;;;;;;;6.30;2.80;;;19.00;98.60;;;;;;5122490;27;20053;-79
2021/08/11 00:41:54;;;;;;;6.40;2.78;;;19.00;98.70;;;;;;5127766;27;20126;-78
2021/08/11 00:44:21;;;;;;;5.95;2.80;;;18.90;98.80;;;;;;5123263;27;20936;-79
2021/08/11 00:46:50;;;;;;;5.15;2.55;;;18.90;98.90;;;;;;5135823;27;20035;-79
2021/08/11 00:49:18;;;;;;;4.75;2.90;;;18.90;99.00;;;;;;5127781;27;20039;-80
2021/08/11 00:51:47;;;;;;;4.93;2.60;;;18.90;99.00;;;;;;5143256;27;20066;-80
2021/08/11 00:54:15;;;;;;;5.03;2.70;;;18.90;98.90;;;;;;5135910;27;20111;-78
2021/08/11 00:56:46;;;;;;;6.70;2.38;;;18.90;98.80;;;;;;5135074;27;20078;-77
2021/08/11 00:59:17;;;;;;;4.70;2.60;;;18.90;98.90;;;;;;5125732;27;20127;-78
2021/08/11 01:01:48;;;;;;;4.72;2.70;;;18.90;99.10;;;;;;5114402;27;20632;-80
2021/08/11 01:04:18;;;;;;;4.38;2.58;;;18.90;98.80;;;;;;5123076;27;20051;-80
2021/08/11 01:06:46;;;;;;;5.07;2.60;;;18.80;98.80;;;;;;5125310;27;20138;-79
2021/08/11 01:09:15;;;;;;;5.85;3.10;;;18.80;98.90;;;;;;5118968;27;20138;-80
2021/08/11 01:11:46;;;;;;;4.85;2.50;;;18.80;98.70;;;;;;5121232;27;20128;-80
2021/08/11 01:14:15;;;;;;;4.80;2.40;;;18.80;98.80;;;;;;5117404;27;20044;-77
2021/08/11 01:16:43;;;;;;;4.82;2.60;;;18.80;98.90;;;;;;5125170;27;20564;-78
2021/08/11 01:19:10;;;;;;;6.45;2.70;;;18.80;98.90;;;;;;5123866;27;20135;-77
2021/08/11 01:21:53;;;;;;;4.68;2.60;;;18.80;99.00;;;;;;5121428;27;20536;-77
2021/08/11 01:24:29;;;;;;;4.28;2.40;;;18.80;99.00;;;;;;5123567;27;20131;-80
2021/08/11 01:27:51;;;;;;;6.55;2.80;;;18.80;99.00;;;;;;5123294;28;20127;-80
2021/08/11 01:30:24;;;;;;;5.50;2.63;;;18.80;99.10;;;;;;5099097;28;20086;-79
2021/08/11 01:33:25;;;;;;;4.45;2.45;;;18.80;98.90;;;;;;5118538;27;20043;-81
2021/08/11 01:36:00;;;;;;;6.13;2.90;;;18.70;99.00;;;;;;5116646;28;20039;-78
2021/08/11 01:38:31;;;;;;;5.05;2.70;;;18.70;98.80;;;;;;5121924;28;20040;-78
2021/08/11 01:41:03;;;;;;;4.72;2.70;;;18.70;98.80;;;;;;5128657;28;20039;-77
2021/08/11 01:43:38;;;;;;;4.03;2.50;;;18.60;98.90;;;;;;5104346;28;20043;-80
2021/08/11 01:46:08;;;;;;;5.28;2.45;;;18.60;98.90;;;;;;5121292;28;20143;-80
2021/08/11 01:48:39;;;;;;;5.68;2.30;;;18.60;98.80;;;;;;5114210;28;20378;-79
2021/08/11 01:51:08;;;;;;;4.60;2.40;;;18.60;98.70;;;;;;5122830;28;20093;-77
2021/08/11 01:53:36;;;;;;;4.95;2.40;;;18.60;98.50;;;;;;5106589;28;20051;-80
2021/08/11 01:56:04;;;;;;;5.30;2.60;;;18.50;98.60;;;;;;5106503;28;20130;-80
2021/08/11 01:58:32;;;;;;;4.43;2.35;;;18.50;98.60;;;;;;5113484;28;20130;-80
2021/08/11 02:01:02;;;;;;;4.97;2.42;;;18.50;98.70;;;;;;5121353;28;20439;-78
2021/08/11 02:03:29;;;;;;;4.43;2.53;;;18.50;98.80;;;;;;5124346;28;20062;-78
2021/08/11 02:05:58;;;;;;;4.55;2.33;;;18.40;98.80;;;;;;5124867;28;20481;-80
2021/08/11 02:08:26;;;;;;;4.00;2.35;;;18.40;98.90;;;;;;5104750;28;20151;-77
2021/08/11 02:10:56;;;;;;;5.63;2.97;;;18.40;98.90;;;;;;5124593;28;20131;-79
2021/08/11 02:13:24;;;;;;;4.93;2.67;;;18.50;99.20;;;;;;5122780;28;20058;-79
2021/08/11 02:15:52;;;;;;;6.22;2.78;;;18.40;98.60;;;;;;5124754;27;20043;-79
2021/08/11 02:18:19;;;;;;;4.50;2.60;;;18.30;98.70;;;;;;5128795;27;20043;-78
2021/08/11 02:20:47;;;;;;;5.20;2.60;;;18.30;98.70;;;;;;5121154;27;20549;-79
2021/08/11 02:23:15;;;;;;;5.43;2.70;;;18.20;98.90;;;;;;5121955;27;20047;-80
2021/08/11 02:25:49;;;;;;;5.03;2.55;;;18.10;99.00;;;;;;5124504;28;20118;-78
2021/08/11 02:28:25;;;;;;;5.63;2.55;;;18.10;99.10;;;;;;5122604;27;20090;-77
2021/08/11 02:31:00;;;;;;;5.28;2.75;;;18.00;99.10;;;;;;5119735;28;20047;-77
2021/08/11 02:33:36;;;;;;;5.43;2.67;;;17.90;99.20;;;;;;5121090;28;20052;-78
2021/08/11 02:36:10;;;;;;;5.65;2.75;;;17.90;99.40;;;;;;5128548;28;20134;-79
2021/08/11 02:38:42;;;;;;;4.75;2.47;;;17.80;99.70;;;;;;5113756;28;20046;-78
2021/08/11 02:41:14;;;;;;;4.00;2.50;;;17.70;99.50;;;;;;5121212;28;20069;-79
2021/08/11 02:43:49;;;;;;;4.40;2.60;;;17.60;99.50;;;;;;5115801;27;20063;-77
2021/08/11 02:46:21;;;;;;;5.57;2.90;;;17.60;99.80;;;;;;5126049;27;20123;-78
2021/08/11 02:48:53;;;;;;;6.90;3.35;;;17.50;99.90;;;;;;5128138;27;20135;-80
2021/08/11 02:51:22;;;;;;;5.60;2.88;;;17.50;99.90;;;;;;5125768;27;20046;-78
2021/08/11 02:53:51;;;;;;;5.78;2.80;;;17.50;99.90;;;;;;5124457;27;20075;-80
2021/08/11 02:56:19;;;;;;;5.10;2.63;;;17.50;99.90;;;;;;5125911;27;20048;-78
2021/08/11 02:58:46;;;;;;;4.75;3.05;;;17.40;99.90;;;;;;5127868;27;20046;-78
2021/08/11 03:01:14;;;;;;;4.78;2.78;;;17.40;99.90;;;;;;5126122;27;20506;-79
2021/08/11 03:03:42;;;;;;;4.93;2.55;;;17.50;99.90;;;;;;5124049;27;20128;-77
2021/08/11 03:06:09;;;;;;;5.25;2.50;;;17.50;99.90;;;;;;5127422;27;20123;-78
2021/08/11 03:08:36;;;;;;;7.28;3.08;;;17.50;99.90;;;;;;5145363;27;20501;-77
2021/08/11 03:11:05;;;;;;;4.70;3.03;;;17.50;99.90;;;;;;5126970;27;20524;-79
2021/08/11 03:13:32;;;;;;;5.55;3.05;;;17.60;99.90;;;;;;5122931;27;20464;-80
2021/08/11 03:15:59;;;;;;;6.28;2.95;;;17.60;99.90;;;;;;5125295;27;20070;-80
2021/08/11 03:18:26;;;;;;;4.32;2.40;;;17.60;99.90;;;;;;5124027;27;20047;-77
2021/08/11 03:20:53;;;;;;;4.57;2.75;;;17.60;99.90;;;;;;5125020;27;20445;-79
2021/08/11 03:23:20;;;;;;;5.32;2.67;;;17.70;99.90;;;;;;5122610;27;20123;-77
2021/08/11 03:25:47;;;;;;;4.65;2.60;;;17.70;99.90;;;;;;5124585;27;20545;-77
2021/08/11 03:28:16;;;;;;;5.60;3.10;;;17.80;99.90;;;;;;5123361;27;20045;-79
2021/08/11 03:30:43;;;;;;;5.35;2.78;;;17.80;99.90;;;;;;5121219;27;20049;-78
2021/08/11 03:33:10;;;;;;;5.93;3.30;;;17.80;99.90;;;;;;5113777;27;20413;-78
2021/08/11 03:35:37;;;;;;;6.00;3.15;;;17.80;99.90;;;;;;5120601;27;20136;-76
2021/08/11 03:38:04;;;;;;;6.55;2.90;;;17.80;99.90;;;;;;5121308;27;20119;-79
2021/08/11 03:40:31;;;;;;;4.07;2.38;;;17.80;99.90;;;;;;5117087;27;20122;-78
2021/08/11 03:42:59;;;;;;;6.65;2.80;;;17.80;99.90;;;;;;5123927;27;20081;-76
2021/08/11 03:45:27;;;;;;;8.57;2.97;;;17.80;99.90;;;;;;5121550;27;20050;-80
2021/08/11 03:47:55;;;;;;;5.53;2.90;;;17.80;99.90;;;;;;5120995;27;20115;-78
2021/08/11 03:50:25;;;;;;;5.85;2.83;;;17.70;99.90;;;;;;5123086;27;20047;-77
2021/08/11 03:52:53;;;;;;;5.55;2.95;;;17.70;99.90;;;;;;5126023;27;20807;-78
2021/08/11 03:55:20;;;;;;;6.55;3.33;;;17.70;99.90;;;;;;5120564;27;20472;-78
2021/08/11 03:57:47;;;;;;;5.80;2.95;;;17.60;99.90;;;;;;5120986;27;20134;-79
2021/08/11 04:00:14;;;;;;;5.10;3.10;;;17.60;99.90;;;;;;5121763;27;20134;-79
2021/08/11 04:02:43;;;;;;;4.68;2.83;;;17.50;99.90;;;;;;5125574;27;20114;-79
2021/08/11 04:05:11;;;;;;;5.20;2.88;;;17.40;99.90;;;;;;5133772;27;20127;-79
2021/08/11 04:07:38;;;;;;;5.90;2.58;;;17.40;99.90;;;;;;5122948;27;20138;-79
2021/08/11 04:10:07;;;;;;;5.43;2.75;;;17.30;99.90;;;;;;5122717;27;20213;-80
2021/08/11 04:12:34;;;;;;;4.35;2.70;;;17.30;99.90;;;;;;5112501;27;20130;-80
2021/08/11 04:15:01;;;;;;;4.50;2.90;;;17.30;99.90;;;;;;5126110;27;20495;-78
2021/08/11 04:17:28;;;;;;;6.65;2.90;;;17.30;99.90;;;;;;5129277;27;20085;-80
2021/08/11 04:19:57;;;;;;;5.50;2.67;;;17.40;99.90;;;;;;5122339;27;20130;-80
2021/08/11 04:22:24;;;;;;;8.63;3.00;;;17.40;99.90;;;;;;5122737;27;20126;-80
2021/08/11 04:24:51;;;;;;;5.32;2.65;;;17.40;99.90;;;;;;5122495;27;20206;-78
2021/08/11 04:27:18;;;;;;;5.40;3.00;;;17.40;99.90;;;;;;5125735;27;20131;-78
2021/08/11 04:29:45;;;;;;;4.75;2.75;;;17.30;99.90;;;;;;5127619;27;20048;-75
2021/08/11 04:32:12;;;;;;;4.45;2.67;;;17.40;99.90;;;;;;5135437;27;20130;-75
2021/08/11 04:34:39;;;;;;;4.88;2.58;;;17.30;99.90;;;;;;5135185;27;20512;-77
2021/08/11 04:37:08;;;;;;;5.25;2.88;;;17.30;99.90;;;;;;5134797;27;20130;-78
2021/08/11 04:39:35;;;;;;;5.80;2.88;;;17.30;99.90;;;;;;5137296;27;20118;-75
2021/08/11 04:42:02;;;;;;;5.00;2.75;;;17.30;99.90;;;;;;5140057;27;20107;-76
2021/08/11 04:44:29;;;;;;;5.25;2.78;;;17.30;99.90;;;;;;5138677;27;20070;-77
2021/08/11 04:46:58;;;;;;;4.88;2.70;;;17.40;99.90;;;;;;5136853;27;20077;-77
2021/08/11 04:49:25;;;;;;;5.10;2.70;;;17.40;99.90;;;;;;5136183;27;20054;-76
2021/08/11 04:51:52;;;;;;;6.50;2.80;;;17.40;99.90;;;;;;5135058;27;20074;-79
2021/08/11 04:54:20;;;;;;;4.47;2.63;;;17.50;99.90;;;;;;5134979;27;20135;-78
2021/08/11 04:56:47;;;;;;;5.40;2.72;;;17.50;99.90;;;;;;5134976;27;20567;-77
2021/08/11 04:59:14;;;;;;;6.40;3.00;;;17.60;99.90;;;;;;5134825;27;20129;-78
2021/08/11 05:01:41;;;;;;;10.55;3.92;;;17.60;99.90;;;;;;5134357;27;20145;-77
2021/08/11 05:04:09;;;;;;;4.65;3.05;;;17.50;99.90;;;;;;5134268;27;20411;-78
2021/08/11 05:06:36;;;;;;;6.72;2.90;;;17.50;99.90;;;;;;5133695;27;20472;-77
2021/08/11 05:09:03;;;;;;;7.63;3.20;;;17.40;99.90;;;;;;5142615;27;20527;-78
2021/08/11 05:11:31;;;;;;;6.95;3.40;;;17.40;99.90;;;;;;5142709;27;20063;-78
2021/08/11 05:13:58;;;;;;;5.90;3.40;;;17.30;99.90;;;;;;5134429;27;20142;-77
2021/08/11 05:16:25;;;;;;;4.93;3.10;;;17.30;99.90;;;;;;5133815;27;20043;-76
2021/08/11 05:18:52;;;;;;;7.65;3.10;;;17.30;99.90;;;;;;5134385;27;20138;-77
2021/08/11 05:21:19;;;;;;;5.35;3.20;;;17.30;99.90;;;;;;5134705;27;20125;-76
2021/08/11 05:23:46;;;;;;;5.28;3.13;;;17.40;99.90;;;;;;5141109;27;20463;-75
2021/08/11 05:26:13;;;;;;;5.18;2.50;;;17.50;99.90;;;;;;5136249;27;20051;-75
2021/08/11 05:28:42;;;;;;;5.80;2.85;;;17.50;99.90;;;;;;5117544;28;20127;-76
2021/08/11 05:31:09;;;;;;;5.50;3.03;;;17.60;99.90;;;;;;5113466;28;20134;-76
2021/08/11 05:33:36;;;;;;;4.97;2.90;;;17.70;99.90;;;;;;5115469;28;20094;-77
2021/08/11 05:36:03;;;;;;;4.93;3.28;;;17.70;99.90;;;;;;5113660;28;20565;-78
2021/08/11 05:38:32;;;;;;;5.82;2.80;;;17.80;99.90;;;;;;5113520;28;20075;-78
2021/08/11 05:41:00;;;;;;;5.80;2.85;;;17.90;99.90;;;;;;5113404;28;20126;-77
2021/08/11 05:43:27;;;;;;;6.68;2.90;;;18.00;99.90;;;;;;5113384;28;20052;-78
2021/08/11 05:45:55;;;;;;;4.80;2.80;;;18.00;99.90;;;;;;5113301;28;20135;-77
2021/08/11 05:48:23;;;;;;;6.93;3.05;;;18.10;99.90;;;;;;5113199;28;20134;-76
2021/08/11 05:50:50;;;;;;;6.18;3.10;;;18.20;99.90;;;;;;5112995;28;20057;-78
2021/08/11 05:53:17;;;;;;;6.07;2.80;;;18.30;99.90;;;;;;5113351;28;20135;-77
2021/08/11 05:55:45;;;;;;;6.32;3.08;;;18.30;99.90;;;;;;5116710;28;20103;-76
2021/08/11 05:58:12;;;;;;;6.35;3.22;;;18.40;99.90;;;;;;5124280;28;20062;-76
2021/08/11 06:00:39;;;;;;;6.75;3.63;;;18.40;99.90;;;;;;5114955;28;20122;-76
2021/08/11 06:03:08;;;;;;;5.22;3.00;;;18.40;99.90;;;;;;5113304;28;20079;-76
2021/08/11 06:05:36;;;;;;;5.15;3.10;;;18.50;99.90;;;;;;5113230;28;20131;-77
2021/08/11 06:08:04;;;;;;;5.10;3.33;;;18.50;99.90;;;;;;5113040;28;20126;-78
2021/08/11 06:10:31;;;;;;;5.05;3.13;;;18.50;99.90;;;;;;5112984;28;20139;-76
2021/08/11 06:12:58;;;;;;;6.28;3.58;;;18.50;99.90;;;;;;5112965;28;20166;-76
2021/08/11 06:15:25;;;;;;;5.15;2.90;;;18.50;99.90;;;;;;5113265;28;20445;-77
2021/08/11 06:17:53;;;;;;;5.45;3.10;;;18.60;99.90;;;;;;5112837;28;20087;-78
2021/08/11 06:20:23;;;;;;;6.45;3.55;;;18.70;99.90;;;;;;5116891;28;20052;-78
2021/08/11 06:22:51;;;;;;;7.35;3.72;;;18.70;99.90;;;;;;5120731;28;20078;-76
2021/08/11 06:25:19;;;;;;;7.93;3.42;;;18.70;99.90;;;;;;5117158;28;20051;-76
2021/08/11 06:27:46;;;;;;;4.88;3.15;;;18.70;99.90;;;;;;5117165;28;20150;-76
2021/08/11 06:30:14;;;;;;;5.13;2.90;;;18.70;99.90;;;;;;5117177;28;20135;-78
2021/08/11 06:32:42;;;;;;;5.90;3.47;;;18.80;99.90;;;;;;5117150;28;20127;-77
2021/08/11 06:35:10;;;;;;;7.03;2.97;;;18.80;99.90;;;;;;5117180;28;20044;-77
2021/08/11 06:37:50;;;;;;;7.95;3.28;;;18.80;99.90;;;;;;5116645;28;20055;-76
2021/08/11 06:40:20;;;;;;;6.20;4.15;;;18.80;99.90;;;;;;5116472;28;20134;-76
2021/08/11 06:42:49;;;;;;;7.05;3.90;;;18.90;99.90;;;;;;5116838;28;20071;-77
2021/08/11 06:45:16;;;;;;;6.00;3.30;;;18.90;99.90;;;;;;5116922;28;20131;-77
2021/08/11 06:47:44;;;;;;;5.50;3.22;;;18.90;99.90;;;;;;5116638;28;20271;-77
2021/08/11 06:50:13;;;;;;;5.57;3.35;;;19.00;99.90;;;;;;5116133;28;20469;-79
2021/08/11 06:52:41;;;;;;;6.10;3.40;;;19.00;99.90;;;;;;5117017;28;20134;-79
2021/08/11 06:55:11;;;;;;;6.15;3.42;;;19.10;99.90;;;;;;5116439;28;20051;-77
2021/08/11 06:57:40;;;;;;;6.07;3.30;;;19.10;99.90;;;;;;5116421;28;20138;-75
2021/08/11 07:00:09;;;;;;;6.95;3.55;;;19.20;99.90;;;;;;5116389;28;20051;-77
2021/08/11 07:02:36;;;;;;;5.30;3.00;;;19.30;99.90;;;;;;5116676;28;20044;-75
2021/08/11 07:05:04;;;;;;;5.90;3.25;;;19.30;99.90;;;;;;5116877;28;20138;-79
2021/08/11 07:07:31;;;;;;;5.60;3.25;;;19.40;99.90;;;;;;5120120;28;20071;-77
2021/08/11 07:09:59;;;;;;;10.32;3.50;;;19.50;99.90;;;;;;5123472;28;20420;-79
2021/08/11 07:12:27;;;;;;;4.60;3.00;;;19.50;99.90;;;;;;5116842;28;20055;-79
2021/08/11 07:14:55;;;;;;;6.25;3.40;;;19.60;99.90;;;;;;5116783;28;20540;-79
2021/08/11 07:17:22;;;;;;;6.85;3.22;;;19.60;99.90;;;;;;5116705;28;20071;-78
2021/08/11 07:19:49;;;;;;;6.10;3.15;;;19.70;99.90;;;;;;5116635;28;20126;-77
2021/08/11 07:22:16;;;;;;;4.55;2.75;;;19.80;99.90;;;;;;5116715;28;20126;-77
2021/08/11 07:24:44;;;;;;;6.43;3.42;;;19.90;99.90;;;;;;5116724;28;20096;-78
2021/08/11 07:27:11;;;;;;;5.57;3.20;;;19.90;99.90;;;;;;5116022;28;20101;-75
2021/08/11 07:29:39;;;;;;;6.65;3.45;;;20.00;99.90;;;;;;5115847;28;20674;-76
2021/08/11 07:32:07;;;;;;;6.20;2.70;;;20.00;99.90;;;;;;5127206;28;20075;-77
2021/08/11 07:34:34;;;;;;;5.25;2.67;;;20.10;99.90;;;;;;5126704;28;20475;-75
2021/08/11 07:37:01;;;;;;;6.38;3.75;;;20.10;99.90;;;;;;5133957;28;20052;-77
2021/08/11 07:39:28;;;;;;;6.38;3.60;;;20.20;99.80;;;;;;5136022;28;20039;-77
2021/08/11 07:41:55;;;;;;;6.15;3.15;;;20.30;99.60;;;;;;5136259;28;20077;-77
2021/08/11 07:44:22;;;;;;;5.88;3.00;;;20.40;99.50;;;;;;5135518;28;20428;-76
2021/08/11 07:46:51;;;;;;;5.82;2.90;;;20.50;99.30;;;;;;5136188;28;20047;-77
2021/08/11 07:49:18;;;;;;;5.50;2.63;;;20.50;99.30;;;;;;5137082;28;20043;-77
2021/08/11 07:51:45;;;;;;;6.00;3.20;;;20.60;99.20;;;;;;5135006;28;20047;-80
2021/08/11 07:54:12;;;;;;;6.35;3.78;;;20.60;99.00;;;;;;5135921;28;20074;-78
2021/08/11 07:56:39;;;;;;;6.43;3.92;;;20.80;98.90;;;;;;5134849;28;20540;-77
2021/08/11 07:59:06;;;;;;;6.90;3.65;;;20.80;98.60;;;;;;5135362;28;20071;-76
2021/08/11 08:01:33;;;;;;;5.68;3.60;;;20.90;98.70;;;;;;5122882;28;20082;-76
2021/08/11 08:04:01;;;;;;;7.95;4.20;;;20.90;98.40;;;;;;5120245;28;20361;-77
2021/08/11 08:06:28;;;;;;;5.75;3.13;;;20.90;98.20;;;;;;5115160;28;20127;-79
2021/08/11 08:08:55;;;;;;;4.72;2.55;;;21.00;98.20;;;;;;5115340;28;20122;-78
2021/08/11 08:11:23;;;;;;;6.40;2.95;;;21.00;98.20;;;;;;5114995;28;20134;-77
2021/08/11 08:13:50;;;;;;;5.70;2.80;;;21.00;98.10;;;;;;5114715;28;20447;-78
2021/08/11 08:16:17;;;;;;;5.03;2.90;;;21.10;98.00;;;;;;5115145;28;20127;-78
2021/08/11 08:18:44;;;;;;;5.63;3.22;;;21.20;98.00;;;;;;5114990;28;20063;-79
2021/08/11 08:21:13;;;;;;;4.15;2.50;;;21.20;97.80;;;;;;5115088;28;20055;-79
2021/08/11 08:23:41;;;;;;;4.75;2.58;;;21.30;97.70;;;;;;5114805;28;20054;-77
2021/08/11 08:26:08;;;;;;;4.70;2.70;;;21.40;97.60;;;;;;5114494;28;20047;-76
2021/08/11 08:28:35;;;;;;;5.65;3.42;;;21.50;97.30;;;;;;5114694;28;20459;-77
2021/08/11 08:31:02;;;;;;;4.78;2.80;;;21.50;97.20;;;;;;5114556;28;20495;-79
2021/08/11 08:33:29;;;;;;;5.63;2.70;;;21.60;97.10;;;;;;5114527;28;20081;-75
2021/08/11 08:35:56;;;;;;;5.75;2.63;;;21.70;97.10;;;;;;5114701;28;20047;-78
2021/08/11 08:38:24;;;;;;;5.43;2.40;;;21.80;97.10;;;;;;5096040;28;20048;-75
2021/08/11 08:40:53;;;;;;;5.05;2.63;;;21.90;96.90;;;;;;5114286;28;20639;-76
2021/08/11 08:43:21;;;;;;;5.38;2.92;;;21.90;96.80;;;;;;5114549;28;20047;-75
2021/08/11 08:45:50;;;;;;;5.55;2.55;;;22.00;96.70;;;;;;5118749;28;20167;-75
2021/08/11 08:48:17;;;;;;;4.90;2.58;;;22.10;96.60;;;;;;5112079;28;20054;-75
2021/08/11 08:50:45;;;;;;;5.35;2.70;;;22.20;96.40;;;;;;5111292;28;20560;-74
2021/08/11 08:53:13;;;;;;;5.38;2.70;;;22.20;96.20;;;;;;5110761;28;20043;-74
2021/08/11 08:55:42;;;;;;;5.65;2.53;;;22.30;96.10;;;;;;5111422;28;20058;-76
2021/08/11 08:58:09;;;;;;;4.10;2.70;;;22.40;96.10;;;;;;5110914;28;20487;-74
2021/08/11 09:00:36;;;;;;;6.82;3.00;;;22.40;95.90;;;;;;5111464;28;20043;-76
2021/08/11 09:03:04;;;;;;;5.97;2.75;;;22.50;95.80;;;;;;5111376;28;20051;-73
2021/08/11 09:05:31;;;;;;;5.55;2.65;;;22.60;95.80;;;;;;5110785;28;20189;-76
2021/08/11 09:07:58;;;;;;;4.90;2.72;;;22.60;95.70;;;;;;5111029;28;20671;-75
2021/08/11 09:10:28;;;;;;;6.75;3.05;;;22.70;95.60;;;;;;5111480;28;20043;-75
2021/08/11 09:12:59;;;;;;;5.72;2.45;;;22.80;95.40;;;;;;5111237;28;20058;-76
2021/08/11 09:15:32;;;;;;;3.97;2.35;;;22.90;95.30;;;;;;5111077;28;20130;-73
2021/08/11 09:18:10;;;;;;;5.40;2.70;;;22.90;95.20;;;;;;5108063;28;20059;-75
2021/08/11 09:20:38;;;;;;;4.82;2.63;;;23.10;95.10;;;;;;5113908;27;20517;-75
2021/08/11 09:23:07;;;;;;;5.35;3.05;;;23.10;94.90;;;;;;5130434;27;20408;-76
2021/08/11 09:25:34;;;;;;;4.55;2.55;;;23.20;94.70;;;;;;5117717;27;20055;-75
2021/08/11 09:28:17;;;;;;;6.13;3.15;;;23.20;94.60;;;;;;5109375;28;20055;-75
2021/08/11 09:30:44;;;;;;;5.68;2.53;;;23.40;94.30;;;;;;5109080;28;20126;-74
2021/08/11 09:33:11;;;;;;;5.88;2.58;;;23.40;94.20;;;;;;5109177;28;20572;-74
2021/08/11 09:35:39;;;;;;;5.00;2.88;;;23.50;94.10;;;;;;5109727;28;20069;-75
2021/08/11 09:38:09;;;;;;;4.47;2.55;;;23.50;93.80;;;;;;5108203;28;20040;-75
2021/08/11 09:40:37;;;;;;;4.50;2.30;;;23.60;93.70;;;;;;5121990;28;20133;-76
2021/08/11 09:43:08;;;;;;;3.80;2.30;;;23.70;93.50;;;;;;5129741;27;20480;-75
2021/08/11 09:45:47;;;;;;;5.28;2.63;;;23.70;93.40;;;;;;5088050;28;20044;-75
2021/08/11 09:48:15;;;;;;;5.70;2.70;;;23.80;93.50;;;;;;5108799;28;20039;-76
2021/08/11 09:50:46;;;;;;;4.95;2.42;;;23.90;93.70;;;;;;5108911;28;20082;-74
2021/08/11 09:53:23;;;;;;;4.65;2.50;;;23.90;93.60;;;;;;5111366;28;20105;-77
2021/08/11 09:56:04;;;;;;;5.05;2.47;;;24.00;93.20;;;;;;5113172;28;20147;-76
2021/08/11 09:58:36;;;;;;;4.50;2.50;;;24.00;93.10;;;;;;5117712;28;20052;-76
2021/08/11 10:01:05;;;;;;;5.53;2.83;;;24.10;93.00;;;;;;5126519;27;20499;-76
2021/08/11 10:03:33;;;;;;;4.72;2.80;;;24.20;92.70;;;;;;5133831;27;20051;-73
2021/08/11 10:06:01;;;;;;;3.97;2.30;;;24.20;91.80;;;;;;5113824;27;20046;-76
2021/08/11 10:08:30;;;;;;;5.72;2.20;;;24.30;90.90;;;;;;5112827;28;20134;-74
2021/08/11 10:10:57;;;;;;;3.60;2.10;;;24.30;90.50;;;;;;5112327;28;20126;-75
2021/08/11 10:13:25;;;;;;;4.70;2.22;;;24.40;90.00;;;;;;5113517;27;20321;-76
2021/08/11 10:15:54;;;;;;;4.43;2.30;;;24.50;90.00;;;;;;5134116;27;20047;-76
2021/08/11 10:18:25;;;;;;;3.42;1.95;;;24.50;88.60;;;;;;5131346;27;20488;-74
2021/08/11 10:20:57;;;;;;;4.22;2.20;;;24.60;89.00;;;;;;5119461;28;20044;-74
2021/08/11 10:23:25;;;;;;;4.43;2.45;;;24.70;88.50;;;;;;5116588;28;20468;-74
2021/08/11 10:25:52;;;;;;;3.70;2.22;;;24.80;87.40;;;;;;5129601;27;20066;-75
2021/08/11 10:28:22;;;;;;;4.32;1.98;;;24.80;87.10;;;;;;5119057;27;20257;-75
2021/08/11 10:30:50;;;;;;;4.57;2.38;;;24.80;88.00;;;;;;5113358;28;20096;-76
2021/08/11 10:33:19;;;;;;;5.68;2.80;;;24.90;88.20;;;;;;5117746;28;20162;-74
2021/08/11 10:35:49;;;;;;;4.60;2.50;;;25.00;86.80;;;;;;5119376;28;20047;-77
2021/08/11 10:38:17;;;;;;;4.22;2.40;;;25.00;86.50;;;;;;5116014;28;20501;-74
2021/08/11 10:40:53;;;;;;;3.92;2.20;;;25.10;86.30;;;;;;5113709;28;20051;-78
2021/08/11 10:43:21;;;;;;;5.28;2.92;;;25.20;86.00;;;;;;5113858;28;20047;-76
2021/08/11 10:46:04;;;;;;;4.65;2.33;;;25.30;85.10;;;;;;5112457;28;20044;-74
2021/08/11 10:48:33;;;;;;;4.00;2.47;;;25.30;84.40;;;;;;5112756;28;20066;-74
2021/08/11 10:51:00;;;;;;;3.90;2.20;;;25.30;84.40;;;;;;5112234;28;20105;-77
2021/08/11 10:53:28;;;;;;;3.70;2.30;;;25.40;84.30;;;;;;5112556;28;20138;-79
2021/08/11 10:55:57;;;;;;;4.53;2.65;;;25.40;83.20;;;;;;5112779;28;20075;-78
2021/08/11 10:58:42;;;;;;;3.85;2.40;;;25.50;82.90;;;;;;5112871;28;20052;-76
2021/08/11 11:01:32;;;;;;;5.35;2.72;;;25.50;83.60;;;;;;5112875;28;20405;-73
2021/08/11 11:04:03;;;;;;;5.82;2.60;;;25.60;81.30;;;;;;5098083;28;20054;-79
2021/08/11 11:06:53;;;;;;;4.60;2.95;;;25.60;80.70;;;;;;5112817;28;20083;-80
2021/08/11 11:09:22;;;;;;;4.70;2.90;;;25.60;78.50;;;;;;5112625;28;20044;-76
2021/08/11 11:11:50;;;;;;;4.55;2.80;;;25.50;78.20;;;;;;5113932;27;20134;-78
2021/08/11 11:14:52;;;;;;;6.40;3.15;;;25.50;78.50;;;;;;5122738;27;20073;-77
2021/08/11 11:17:21;;;;;;;5.35;3.05;;;25.40;78.10;;;;;;5074220;28;20455;-77
2021/08/11 11:20:28;;;;;;;5.45;3.28;;;25.50;78.40;;;;;;5104901;28;20050;-76
2021/08/11 11:23:05;;;;;;;5.88;3.47;;;25.50;78.70;;;;;;5112267;28;20104;-79
2021/08/11 11:26:10;;;;;;;5.43;2.67;;;25.60;78.70;;;;;;5112434;28;20384;-80
2021/08/11 11:29:01;;;;;;;4.82;2.90;;;25.60;78.40;;;;;;5112182;28;20052;-79
2021/08/11 11:31:44;;;;;;;4.05;2.33;;;25.60;78.20;;;;;;5112966;28;20104;-78
2021/08/11 11:34:33;;;;;;;4.32;2.78;;;25.70;78.60;;;;;;5110146;28;20079;-79
2021/08/11 11:37:28;;;;;;;5.35;2.90;;;25.80;78.60;;;;;;5111690;28;20083;-79
2021/08/11 11:40:23;;;;;;;5.20;3.33;;;25.90;77.30;;;;;;5111978;28;20051;-79
2021/08/11 11:42:50;;;;;;;6.20;3.20;;;26.00;76.70;;;;;;5111701;28;20305;-79
2021/08/11 11:45:44;;;;;;;4.43;2.80;;;26.10;75.80;;;;;;5111420;28;20070;-80
2021/08/11 11:48:13;;;;;;;5.43;2.80;;;26.10;75.00;;;;;;5111386;28;20062;-79
2021/08/11 11:50:43;;;;;;;5.20;3.05;;;26.20;74.10;;;;;;5112213;28;20040;-78
2021/08/11 11:53:29;;;;;;;5.63;3.70;;;26.30;72.70;;;;;;5111939;28;20051;-80
2021/08/11 11:55:56;;;;;;;5.55;3.58;;;26.30;72.00;;;;;;5110963;28;20076;-80
2021/08/11 11:58:25;;;;;;;5.75;3.50;;;26.30;71.40;;;;;;5111402;28;20138;-80
2021/08/11 12:01:01;;;;;;;5.22;3.03;;;26.30;71.30;;;;;;5111527;28;20503;-80
2021/08/11 12:03:38;;;;;;;5.35;3.53;;;26.40;71.70;;;;;;5111608;28;20482;-79
2021/08/11 12:06:06;;;;;;;6.38;3.80;;;26.50;71.30;;;;;;5111260;28;20126;-79
2021/08/11 12:08:35;;;;;;;4.80;3.30;;;26.60;70.60;;;;;;5111173;28;20162;-80
2021/08/11 12:11:09;;;;;;;4.82;2.85;;;26.70;71.60;;;;;;5111436;28;20178;-80
2021/08/11 12:13:44;;;;;;;5.65;3.30;;;26.80;71.10;;;;;;5107666;28;20446;-79
2021/08/11 12:16:13;;;;;;;4.40;2.50;;;26.90;71.00;;;;;;5090704;28;20135;-78
2021/08/11 12:18:43;;;;;;;4.97;3.08;;;26.90;72.10;;;;;;5090987;28;20052;-78
2021/08/11 12:21:11;;;;;;;4.70;2.70;;;26.90;72.40;;;;;;5109718;28;20047;-79
2021/08/11 12:23:40;;;;;;;5.15;3.13;;;26.80;72.50;;;;;;5112287;28;20123;-77
2021/08/11 12:26:12;;;;;;;5.60;2.85;;;26.80;73.00;;;;;;5111396;28;20043;-79
2021/08/11 12:28:45;;;;;;;5.65;3.30;;;26.60;73.60;;;;;;5110943;28;20163;-79
2021/08/11 12:31:16;;;;;;;5.05;3.28;;;26.50;74.10;;;;;;5111401;28;20244;-78
2021/08/11 12:33:46;;;;;;;5.30;3.22;;;26.50;74.90;;;;;;5110425;28;20055;-80
2021/08/11 12:36:19;;;;;;;4.78;2.88;;;26.50;75.10;;;;;;5111366;28;20259;-80
2021/08/11 12:39:02;;;;;;;3.80;2.53;;;26.50;75.40;;;;;;5111202;28;20339;-80
2021/08/11 12:41:31;;;;;;;4.18;2.40;;;26.60;76.40;;;;;;5111419;28;20093;-79
2021/08/11 12:44:11;;;;;;;4.80;2.70;;;26.60;76.10;;;;;;5110970;28;20078;-78
2021/08/11 12:46:48;;;;;;;5.68;2.80;;;26.70;75.20;;;;;;5110543;28;20130;-78
2021/08/11 12:49:17;;;;;;;5.55;3.10;;;26.80;75.10;;;;;;5111104;28;20082;-79
2021/08/11 12:51:45;;;;;;;4.53;2.90;;;26.90;73.30;;;;;;5111017;28;20168;-79
2021/08/11 12:54:13;;;;;;;3.50;2.30;;;26.90;73.10;;;;;;5111286;28;20134;-80
2021/08/11 12:57:04;;;;;;;4.50;2.65;;;27.10;73.90;;;;;;5111193;28;20039;-79
2021/08/11 12:59:50;;;;;;;4.65;2.60;;;27.20;74.30;;;;;;5085344;28;20043;-79
2021/08/11 13:02:26;;;;;;;5.80;2.65;;;27.40;73.70;;;;;;5111184;28;20122;-79